Latest Weather Observations for Casino

IDN60801

Issued at 7:32 am EDT Thursday 24 October 2019 (issued every 10 minutes, with the page automatically refreshed every 10 minutes)

About weather observations | Map of weather stations | Latest weather observations for NSW | Other Formats
Station Details ID: 058208 Name: CASINO AIRPORT AWS Lat: -28.88 Lon: 153.06 Height: 20.9 m
Data from the previous 72 hours. | See also: Recent months at Casino
Date/Time
EDT
Temp
°C
App
Temp
°C
Dew
Point
°C
Rel
Hum
%
Delta-T
°C
Wind Press
QNH
hPa
Press
MSL
hPa
Rain since
9am
mm
Dir  Spd
km/h
Gust
km/h
Spd
kts
Gust
kts
24/07:30am 13.3 12.5 11.7 90 0.9 WNW 7 11 4 6 1021.4 1021.3 0.0
24/07:00am 11.7 11.2 10.8 94 0.5 WSW 4 7 2 4 1021.2 1021.1 0.0
24/06:30am 8.4 7.8 7.2 92 0.6 CALM 0 0 0 0 1021.0 1020.9 0.0
24/06:00am 8.1 7.3 6.7 91 0.6 CALM 0 0 0 0 1020.9 1020.8 0.0
24/05:30am 8.9 8.0 7.7 92 0.6 WSW 2 6 1 3 1020.6 1020.5 0.0
24/05:00am 9.5 8.0 8.4 93 0.5 WSW 6 7 3 4 1020.4 1020.3 0.0
24/04:30am 8.7 8.1 7.3 91 0.7 CALM 0 0 0 0 1020.5 1020.4 0.0
24/04:00am 9.4 7.8 8.0 91 0.7 WSW 6 7 3 4 1020.5 1020.4 0.0
24/03:30am 9.0 8.4 7.3 89 0.8 CALM 0 0 0 0 1020.8 1020.7 0.0
24/03:00am 10.1 9.4 8.7 91 0.7 WSW 2 6 1 3 1021.0 1020.9 0.0
24/02:30am 10.5 10.3 8.9 90 0.8 CALM 0 0 0 0 1021.2 1021.1 0.0
24/02:00am 10.2 9.5 8.6 90 0.8 WSW 2 6 1 3 1021.5 1021.4 0.0
24/01:30am 10.6 10.4 8.9 89 0.8 CALM 0 0 0 0 1021.8 1021.7 0.0
24/01:00am 10.6 9.8 8.0 84 1.3 WSW 2 6 1 3 1022.1 1022.0 0.0
24/12:30am 11.3 11.1 9.0 86 1.1 CALM 0 0 0 0 1022.3 1022.2 0.0
24/12:00am 11.8 11.6 9.2 84 1.3 CALM 0 0 0 0 1022.5 1022.4 0.0
 
Date/Time
EDT
Temp
°C
App
Temp
°C
Dew
Point
°C
Rel
Hum
%
Delta-T
°C
Wind Press
QNH
hPa
Press
MSL
hPa
Rain since
9am
mm
Dir  Spd
km/h
Gust
km/h
Spd
kts
Gust
kts
23/11:30pm 12.4 11.3 10.0 85 1.2 WSW 6 7 3 4 1022.6 1022.5 0.0
23/11:00pm 13.1 13.2 10.1 82 1.5 CALM 0 0 0 0 1022.6 1022.5 0.0
23/10:30pm 14.7 14.7 11.3 80 1.8 SE 2 6 1 3 1022.5 1022.4 0.0
23/10:00pm 15.1 14.3 11.1 77 2.1 SE 6 7 3 4 1022.4 1022.3 0.0
23/09:30pm 14.9 14.8 10.7 76 2.2 SE 2 6 1 3 1022.3 1022.2 0.0
23/09:00pm 16.5 15.6 11.2 71 2.8 E 7 9 4 5 1022.2 1022.1 0.0
23/08:30pm 17.5 16.0 12.0 70 3.0 E 11 17 6 9 1021.9 1021.8 0.0
23/08:00pm 18.1 16.3 12.1 68 3.3 ESE 13 19 7 10 1021.6 1021.5 0.0
23/07:30pm 19.0 16.4 12.0 64 3.9 E 17 20 9 11 1021.5 1021.4 0.0
23/07:00pm 20.7 17.7 12.1 58 4.8 E 19 28 10 15 1021.3 1021.2 0.0
23/06:30pm 22.5 18.7 12.4 52 5.7 E 24 32 13 17 1020.9 1020.8 0.0
23/06:00pm 24.0 19.7 12.0 47 6.8 ENE 26 33 14 18 1020.6 1020.5 0.0
23/05:30pm 25.4 21.2 11.2 41 8.0 ENE 24 32 13 17 1020.3 1020.2 0.0
23/05:00pm 26.8 22.8 10.5 36 9.1 E 22 30 12 16 1020.3 1020.2 0.0
23/04:30pm 27.6 24.1 10.8 35 9.5 E 20 30 11 16 1020.2 1020.1 0.0
23/04:00pm 28.6 25.5 11.6 34 9.8 ESE 19 26 10 14 1020.3 1020.2 0.0
23/03:30pm 27.3 23.9 10.5 35 9.5 E 19 32 10 17 1020.4 1020.3 0.0
23/03:00pm 27.8 25.3 10.9 35 9.6 E 15 24 8 13 1020.6 1020.5 0.0
23/02:30pm 28.2 25.5 10.4 33 10.0 E 15 28 8 15 1021.1 1021.0 0.0
23/02:00pm 26.7 24.0 9.1 33 9.6 NNE 13 20 7 11 1021.6 1021.5 0.0
23/01:30pm 26.2 24.3 10.4 37 8.8 E 11 17 6 9 1022.4 1022.3 0.0
23/01:00pm 26.7 24.9 10.8 37 8.9 SE 11 24 6 13 1022.7 1022.6 0.0
23/12:30pm 25.2 23.7 10.6 40 8.1 SE 9 19 5 10 1023.2 1023.1 0.0
23/12:00pm 24.8 23.4 11.0 42 7.7 ENE 9 19 5 10 1023.8 1023.7 0.0
23/11:30am 24.2 22.5 11.2 44 7.3 SE 11 17 6 9 1024.3 1024.2 0.0
23/11:00am 22.8 21.9 11.2 48 6.4 NW 7 11 4 6 1024.8 1024.7 0.0
23/10:30am 22.8 21.4 12.1 51 6.1 NE 11 19 6 10 1025.1 1025.0 0.0
23/10:00am 23.0 22.8 13.5 55 5.5 SSE 7 17 4 9 1025.2 1025.1 0.0
23/09:30am 21.1 20.8 12.8 59 4.7 NNW 6 9 3 5 1025.2 1025.1 0.0
23/09:00am 19.8 19.4 13.0 65 3.8 WNW 7 11 4 6 1025.2 1025.1 0.0
23/08:30am 18.7 18.0 13.1 70 3.2 NW 9 15 5 8 1025.1 1025.0 0.0
23/08:00am 17.0 16.1 12.7 76 2.4 NW 9 13 5 7 1024.9 1024.8 0.0
23/07:30am 15.3 14.3 12.4 83 1.6 NW 9 13 5 7 1024.7 1024.6 0.0
23/07:00am 13.8 12.3 12.0 89 1.0 NW 11 13 6 7 1024.7 1024.6 0.0
23/06:30am 12.8 12.1 11.5 92 0.7 NW 6 11 3 6 1024.4 1024.3 0.0
23/06:00am 12.4 11.5 11.3 93 0.6 NW 7 11 4 6 1024.0 1023.9 0.0
23/05:30am 12.0 11.0 10.9 93 0.6 WNW 7 11 4 6 1023.9 1023.8 0.0
23/05:00am 10.8 9.4 9.7 93 0.6 WNW 7 9 4 5 1023.6 1023.5 0.0
23/04:30am 11.5 10.0 10.6 94 0.5 WNW 9 11 5 6 1023.4 1023.3 0.0
23/04:00am 10.1 9.1 9.0 93 0.5 SSW 4 7 2 4 1023.3 1023.2 0.0
23/03:30am 10.0 9.7 8.6 91 0.7 CALM 0 0 0 0 1023.4 1023.3 0.0
23/03:00am 10.6 10.4 9.2 91 0.7 CALM 0 0 0 0 1023.6 1023.5 0.0
23/02:30am 10.5 10.3 8.9 90 0.8 CALM 0 0 0 0 1024.0 1023.9 0.0
23/02:00am 11.3 11.4 10.0 92 0.7 CALM 0 0 0 0 1024.1 1024.0 0.0
23/01:30am 12.0 12.2 10.6 91 0.7 CALM 0 0 0 0 1024.4 1024.3 0.0
23/01:00am 11.9 12.0 10.3 90 0.8 CALM 0 0 0 0 1024.5 1024.4 0.0
23/12:30am 11.8 11.8 9.7 87 1.1 CALM 0 0 0 0 1024.7 1024.6 0.0
23/12:00am 12.2 11.5 10.1 87 1.1 SSW 4 7 2 4 1025.1 1025.0 0.0
 
Date/Time
EDT
Temp
°C
App
Temp
°C
Dew
Point
°C
Rel
Hum
%
Delta-T
°C
Wind Press
QNH
hPa
Press
MSL
hPa
Rain since
9am
mm
Dir  Spd
km/h
Gust
km/h
Spd
kts
Gust
kts
22/11:30pm 12.9 12.0 10.6 86 1.2 SSW 6 7 3 4 1025.1 1025.0 0.0
22/11:00pm 14.0 13.1 11.5 85 1.3 SSW 7 9 4 5 1025.2 1025.1 0.0
22/10:30pm 14.2 13.5 11.4 83 1.5 S 6 7 3 4 1025.3 1025.2 0.0
22/10:00pm 14.7 13.8 11.3 80 1.8 S 7 7 4 4 1025.1 1025.0 0.0
22/09:30pm 15.7 15.0 11.9 78 2.1 S 7 9 4 5 1025.2 1025.1 0.0
22/09:00pm 16.0 14.7 11.2 73 2.6 SE 9 13 5 7 1025.0 1024.9 0.0
22/08:30pm 17.2 15.8 12.1 72 2.8 SE 11 15 6 8 1024.6 1024.5 0.0
22/08:00pm 16.8 15.2 11.7 72 2.8 SE 11 15 6 8 1024.3 1024.2 0.0
22/07:30pm 18.1 16.2 11.9 67 3.4 SE 13 15 7 8 1023.9 1023.8 0.0
22/07:00pm 19.2 16.9 11.7 62 4.1 SE 15 19 8 10 1023.4 1023.3 0.0
22/06:30pm 20.9 17.8 11.5 55 5.2 ESE 19 24 10 13 1023.0 1022.9 0.0
22/06:00pm 22.1 18.9 11.8 52 5.8 E 20 30 11 16 1022.6 1022.5 0.0
22/05:30pm 23.1 18.8 12.1 50 6.2 ESE 26 32 14 17 1022.3 1022.2 0.0
22/05:00pm 23.9 20.1 12.5 49 6.5 E 24 30 13 16 1022.1 1022.0 0.0
22/04:30pm 24.5 21.0 13.4 50 6.5 ESE 24 32 13 17 1022.0 1021.9 0.0
22/04:00pm 25.2 21.9 11.7 43 7.7 ESE 20 32 11 17 1021.9 1021.8 0.0
22/03:30pm 25.7 22.7 12.5 44 7.6 ESE 20 30 11 16 1022.1 1022.0 0.0
22/03:00pm 25.9 23.1 12.7 44 7.6 ESE 19 28 10 15 1022.4 1022.3 0.0
22/02:30pm 25.0 21.9 11.6 43 7.6 E 19 26 10 14 1022.7 1022.6 0.0
22/02:00pm 25.3 22.9 11.5 42 7.8 E 15 26 8 14 1023.1 1023.0 0.0
22/01:30pm 23.8 22.7 11.8 47 6.8 ESE 9 19 5 10 1023.6 1023.5 0.0
22/01:00pm 24.0 21.6 11.3 45 7.1 E 15 20 8 11 1023.9 1023.8 0.0
22/12:30pm 22.9 21.4 10.7 46 6.7 E 9 15 5 8 1024.3 1024.2 0.0
22/12:00pm 23.0 20.5 11.1 47 6.6 ESE 15 19 8 10 1024.7 1024.6 0.0
22/11:30am 22.0 20.9 10.5 48 6.3 SE 7 13 4 7 1025.0 1024.9 0.0
22/11:00am 22.3 20.9 10.8 48 6.3 ENE 9 13 5 7 1025.4 1025.3 0.0
22/10:30am 22.8 21.4 12.1 51 6.1 SSW 11 17 6 9 1025.7 1025.6 0.0
22/10:00am 21.7 20.4 11.1 51 5.8 WSW 9 15 5 8 1025.9 1025.8 0.0
22/09:30am 20.4 19.1 11.1 55 5.1 SSE 9 13 5 7 1025.9 1025.8 0.0
22/09:00am 19.4 18.6 10.9 58 4.6 WSW 6 13 3 7 1025.9 1025.8 0.0
22/08:30am 18.4 17.2 11.7 65 3.7 NW 9 11 5 6 1025.7 1025.6 0.0
22/08:00am 16.3 15.4 11.2 72 2.7 NW 7 11 4 6 1025.6 1025.5 0.0
22/07:30am 14.1 13.0 10.7 80 1.8 WNW 7 11 4 6 1025.4 1025.3 0.0
22/07:00am 12.6 11.4 10.3 86 1.2 WNW 7 9 4 5 1025.3 1025.2 0.0
22/06:30am 11.4 10.1 9.8 90 0.8 WNW 7 9 4 5 1025.0 1024.9 0.0
22/06:00am 10.3 8.8 8.6 89 0.8 W 6 7 3 4 1024.7 1024.6 0.0
22/05:30am 11.1 9.8 9.2 88 0.9 WNW 6 9 3 5 1024.7 1024.6 0.0
22/05:00am 11.6 10.5 10.0 90 0.8 W 6 7 3 4 1024.5 1024.4 0.0
22/04:30am 11.0 9.9 9.8 92 0.6 WNW 6 9 3 5 1024.4 1024.3 0.0
22/04:00am 9.7 8.1 8.1 90 0.8 WNW 6 7 3 4 1024.4 1024.3 0.0
22/03:30am 10.0 9.6 8.4 90 0.8 CALM 0 0 0 0 1024.6 1024.5 0.0
22/03:00am 10.3 10.0 8.6 89 0.8 CALM 0 0 0 0 1024.8 1024.7 0.0
22/02:30am 10.7 10.4 8.8 88 0.9 CALM 0 0 0 0 1024.8 1024.7 0.0
22/02:00am 11.0 10.7 8.8 86 1.1 CALM 0 6 0 3 1025.0 1024.9 0.0
22/01:30am 12.2 12.2 9.9 86 1.2 CALM 0 0 0 0 1025.3 1025.2 0.0
22/01:00am 11.8 10.6 9.7 87 1.1 SE 6 7 3 4 1025.6 1025.5 0.0
22/12:30am 11.7 11.6 9.4 86 1.2 CALM 0 0 0 0 1025.9 1025.8 0.0
22/12:00am 12.2 12.2 9.8 85 1.2 CALM 0 0 0 0 1026.0 1025.9 0.0
 
Date/Time
EDT
Temp
°C
App
Temp
°C
Dew
Point
°C
Rel
Hum
%
Delta-T
°C
Wind Press
QNH
hPa
Press
MSL
hPa
Rain since
9am
mm
Dir  Spd
km/h
Gust
km/h
Spd
kts
Gust
kts
21/11:30pm 12.2 12.1 9.4 83 1.4 CALM 0 0 0 0 1026.1 1026.0 0.0
21/11:00pm 12.3 12.2 9.5 83 1.4 CALM 0 0 0 0 1026.1 1026.0 0.0
21/10:30pm 12.8 12.3 9.4 80 1.7 SE 2 6 1 3 1026.1 1026.0 0.0
21/10:00pm 13.7 12.6 9.9 78 1.9 SE 6 6 3 3 1026.1 1026.0 0.0
21/09:30pm 13.9 13.9 9.9 77 2.1 CALM 0 0 0 0 1026.2 1026.1 0.0
21/09:00pm 14.5 14.5 9.7 73 2.5 CALM 0 0 0 0 1026.0 1025.9 0.0
21/08:30pm 15.2 14.4 9.6 69 2.9 SE 4 7 2 4 1025.8 1025.7 0.0
21/08:00pm 17.1 15.2 10.5 65 3.5 SE 11 13 6 7 1025.6 1025.5 0.0
21/07:30pm 17.3 14.5 10.0 62 3.9 SE 15 20 8 11 1025.3 1025.2 0.0
21/07:00pm 18.4 15.1 9.5 56 4.7 ESE 17 24 9 13 1024.8 1024.7 0.0
21/06:30pm 20.1 16.4 9.4 50 5.7 ESE 19 26 10 14 1024.5 1024.4 0.0
21/06:00pm 21.2 16.8 8.8 45 6.5 ESE 22 30 12 16 1024.3 1024.2 0.0
21/05:30pm 22.1 16.7 8.2 41 7.3 ESE 26 35 14 19 1023.9 1023.8 0.0
21/05:00pm 22.8 17.4 8.1 39 7.7 ESE 26 35 14 19 1023.6 1023.5 0.0
21/04:30pm 23.3 18.7 8.2 38 8.0 ESE 22 35 12 19 1023.4 1023.3 0.0
21/04:00pm 24.0 19.1 8.4 37 8.3 ESE 24 35 13 19 1023.2 1023.1 0.0
21/03:30pm 24.2 19.6 8.2 36 8.5 ESE 22 33 12 18 1023.2 1023.1 0.0
21/03:00pm 24.2 19.0 9.0 38 8.2 ESE 26 41 14 22 1023.5 1023.4 0.0
21/02:30pm 23.2 18.5 7.7 37 8.1 E 22 35 12 19 1023.7 1023.6 0.0
21/02:00pm 24.9 20.3 8.0 34 9.0 E 22 33 12 18 1024.0 1023.9 0.0
21/01:30pm 25.2 21.4 9.1 36 8.8 ESE 19 28 10 15 1024.3 1024.2 0.0
21/01:00pm 24.4 20.6 7.5 34 8.8 SE 17 24 9 13 1024.4 1024.3 0.0
21/12:30pm 23.6 19.3 6.8 34 8.7 ESE 19 32 10 17 1024.8 1024.7 0.0
21/12:00pm 22.8 18.8 6.6 35 8.3 ESE 17 28 9 15 1025.1 1025.0 0.0
21/11:30am 22.3 19.0 6.5 36 8.1 SE 13 20 7 11 1025.5 1025.4 0.0
21/11:00am 21.8 19.0 8.7 43 6.9 S 13 20 7 11 1025.8 1025.7 0.0
21/10:30am 22.4 19.8 9.2 43 7.1 SSE 13 22 7 12 1026.1 1026.0 0.0
21/10:00am 21.6 18.3 8.1 42 7.0 SSE 15 22 8 12 1026.2 1026.1 0.0
21/09:30am 20.6 16.8 7.6 43 6.7 SSE 17 26 9 14 1026.3 1026.2 0.0
21/09:00am 21.4 18.1 9.6 47 6.3 SSE 17 24 9 13 1026.1 1026.0 0.0
21/08:30am 20.4 18.3 9.6 50 5.8 SSE 11 20 6 11 1025.9 1025.8 0.0
21/08:00am 18.3 16.5 10.7 61 4.1 SSW 11 17 6 9 1025.7 1025.6 0.0

Other formats

Comma delimited format used in spreadsheet applications
http://www.bom.gov.au/fwo/IDN60801/IDN60801.94573.axf

JavaScript Object Notation format (JSON) in row-major order
http://www.bom.gov.au/fwo/IDN60801/IDN60801.94573.json

Data quality

Most of these data are generated automatically and are frequently updated. Quality checks on data are not normally performed. It is possible for incorrect values to appear. Refer to information at About Latest Weather Observations and please check the disclaimer before using these data.